Time;durP1;ratioP1;P1;durP2;ratioP2;P2;SDS_P1;SDS_P2;PMS_P1;PMS_P2;Temp;Humidity;BMP_temperature;BMP_pressure;BME280_temperature;BME280_humidity;BME280_pressure;Samples;Min_cycle;Max_cycle;Signal;HPM_P1;HPM_P2
2022/01/02 00:02:28;;;;;;;8.27;4.15;;;11.40;99.90;;;;;;5018169;28;20037;-70
2022/01/02 00:05:08;;;;;;;7.38;3.95;;;11.40;99.90;;;;;;5025803;28;20053;-70
2022/01/02 00:07:40;;;;;;;9.95;4.93;;;11.40;99.90;;;;;;5023313;28;20065;-72
2022/01/02 00:10:08;;;;;;;12.48;4.70;;;11.40;99.90;;;;;;5042871;28;20037;-71
2022/01/02 00:12:35;;;;;;;7.82;3.78;;;11.40;99.90;;;;;;5027405;28;20033;-70
2022/01/02 00:15:05;;;;;;;11.43;4.43;;;11.30;99.90;;;;;;5046194;28;20452;-71
2022/01/02 00:17:32;;;;;;;9.15;3.92;;;11.30;99.90;;;;;;5025924;28;20029;-70
2022/01/02 00:20:01;;;;;;;;;;;11.40;99.90;;;;;;5045807;28;20177;-70
2022/01/02 00:22:35;;;;;;;9.35;4.15;;;11.40;99.90;;;;;;5025909;28;19932;-71
2022/01/02 00:25:05;;;;;;;12.57;4.22;;;11.40;99.90;;;;;;5017685;28;20124;-70
2022/01/02 00:27:34;;;;;;;8.95;4.35;;;11.30;99.90;;;;;;5045401;28;20505;-71
2022/01/02 00:30:03;;;;;;;10.10;4.45;;;11.30;99.90;;;;;;5042779;28;20477;-70
2022/01/02 00:32:29;;;;;;;11.82;4.65;;;11.30;99.90;;;;;;5041506;28;20127;-70
2022/01/02 00:34:55;;;;;;;8.27;4.00;;;11.40;99.90;;;;;;5038715;28;20099;-70
2022/01/02 00:37:20;;;;;;;10.93;4.60;;;11.30;99.90;;;;;;5036609;28;20033;-70
2022/01/02 00:39:46;;;;;;;10.37;4.60;;;11.30;99.90;;;;;;5037790;28;20402;-72
2022/01/02 00:42:45;;;;;;;9.35;4.15;;;11.40;99.90;;;;;;5042613;28;20048;-72
2022/01/02 00:45:27;;;;;;;11.23;4.00;;;11.40;99.90;;;;;;5041154;28;20080;-70
2022/01/02 00:48:08;;;;;;;10.63;4.25;;;11.40;99.90;;;;;;5043553;28;20037;-70
2022/01/02 00:50:37;;;;;;;9.68;4.50;;;11.40;99.90;;;;;;5045508;28;20052;-70
2022/01/02 00:53:05;;;;;;;9.05;4.38;;;11.40;99.90;;;;;;5025628;28;20382;-72
2022/01/02 00:55:34;;;;;;;12.75;4.90;;;11.30;99.90;;;;;;5021195;28;20603;-70
2022/01/02 00:58:16;;;;;;;11.30;4.40;;;11.40;99.90;;;;;;5041106;28;20091;-71
2022/01/02 01:00:51;;;;;;;11.30;4.18;;;11.40;99.90;;;;;;5042765;28;20048;-72
2022/01/02 01:03:25;;;;;;;10.90;3.60;;;11.40;99.90;;;;;;5041142;28;20037;-70
2022/01/02 01:05:53;;;;;;;10.98;4.00;;;11.40;99.90;;;;;;5044853;28;20080;-70
2022/01/02 01:08:21;;;;;;;10.80;4.47;;;11.40;99.90;;;;;;5037332;28;20075;-69
2022/01/02 01:10:48;;;;;;;12.20;4.60;;;11.40;99.90;;;;;;5026397;28;20048;-70
2022/01/02 01:13:14;;;;;;;12.18;4.40;;;11.40;99.90;;;;;;5044429;28;20166;-70
2022/01/02 01:15:40;;;;;;;8.52;3.85;;;11.40;99.90;;;;;;5042953;28;20485;-70
2022/01/02 01:18:06;;;;;;;14.68;5.97;;;11.50;99.90;;;;;;5040139;28;20041;-70
2022/01/02 01:20:41;;;;;;;11.20;5.07;;;11.40;99.90;;;;;;5026605;28;20417;-70
2022/01/02 01:23:07;;;;;;;12.27;4.47;;;11.50;99.90;;;;;;5043107;28;20116;-70
2022/01/02 01:25:35;;;;;;;8.93;4.63;;;11.50;99.90;;;;;;5042578;28;20033;-71
2022/01/02 01:28:01;;;;;;;11.88;4.22;;;11.50;99.90;;;;;;5024746;28;20103;-72
2022/01/02 01:30:28;;;;;;;14.40;4.97;;;11.50;99.90;;;;;;5044120;28;20041;-70
2022/01/02 01:32:54;;;;;;;11.70;4.80;;;11.50;99.90;;;;;;5042513;28;20489;-73
2022/01/02 01:35:22;;;;;;;15.55;4.88;;;11.50;99.90;;;;;;5043738;28;20037;-72
2022/01/02 01:37:49;;;;;;;15.23;4.57;;;11.50;99.90;;;;;;5025097;28;20179;-74
2022/01/02 01:40:15;;;;;;;;;;;11.50;99.90;;;;;;5012055;28;20040;-70
2022/01/02 01:42:54;;;;;;;12.75;4.43;;;11.50;99.90;;;;;;5024632;28;20104;-70
2022/01/02 01:47:48;;;;;;;11.47;5.30;;;11.50;99.90;;;;;;5043804;28;20429;-70
2022/01/02 01:50:15;;;;;;;11.50;5.65;;;11.50;99.90;;;;;;5039696;28;20040;-70
2022/01/02 01:52:41;;;;;;;13.73;5.50;;;11.50;99.90;;;;;;5043604;28;20073;-72
2022/01/02 01:55:08;;;;;;;12.18;5.00;;;11.50;99.90;;;;;;5032635;28;20441;-70
2022/01/02 01:57:34;;;;;;;12.85;4.80;;;11.40;99.90;;;;;;5039928;28;20409;-70
2022/01/02 02:00:04;;;;;;;11.77;5.43;;;11.40;99.90;;;;;;5035932;28;20033;-70
2022/01/02 02:02:30;;;;;;;14.23;5.15;;;11.40;99.90;;;;;;5036803;28;20035;-70
2022/01/02 02:04:58;;;;;;;14.60;5.47;;;11.40;99.90;;;;;;5038711;28;20413;-70
2022/01/02 02:07:28;;;;;;;12.05;5.10;;;11.40;99.90;;;;;;5040259;28;20033;-71
2022/01/02 02:10:11;;;;;;;13.95;6.15;;;11.40;99.90;;;;;;5043221;28;20144;-72
2022/01/02 02:12:39;;;;;;;11.25;5.00;;;11.30;99.90;;;;;;5024389;28;20045;-70
2022/01/02 02:15:05;;;;;;;10.88;5.28;;;11.30;99.90;;;;;;5039292;28;20072;-71
2022/01/02 02:17:32;;;;;;;10.68;5.50;;;11.30;99.90;;;;;;5044581;28;20072;-72
2022/01/02 02:20:10;;;;;;;12.85;5.40;;;11.30;99.90;;;;;;5024451;28;20060;-71
2022/01/02 02:22:41;;;;;;;12.35;6.07;;;11.30;99.90;;;;;;5040014;28;20486;-70
2022/01/02 02:25:07;;;;;;;12.88;6.35;;;11.20;99.90;;;;;;5040995;28;20521;-71
2022/01/02 02:27:33;;;;;;;11.85;5.60;;;11.20;99.90;;;;;;5043043;28;20048;-71
2022/01/02 02:29:59;;;;;;;18.33;6.40;;;11.20;99.90;;;;;;5041377;28;20037;-73
2022/01/02 02:32:25;;;;;;;19.47;6.27;;;11.20;99.90;;;;;;5042229;28;20379;-73
2022/01/02 02:34:50;;;;;;;16.52;5.72;;;11.30;99.90;;;;;;5025139;28;20131;-73
2022/01/02 02:37:16;;;;;;;12.93;5.53;;;11.20;99.90;;;;;;5041344;28;20624;-73
2022/01/02 02:39:42;;;;;;;18.23;6.60;;;11.20;99.90;;;;;;5022426;28;20041;-73
2022/01/02 02:42:16;;;;;;;9.73;5.23;;;11.20;99.90;;;;;;5037313;28;20470;-72
2022/01/02 02:44:41;;;;;;;16.05;5.90;;;11.20;99.90;;;;;;5039378;28;20056;-73
2022/01/02 02:49:51;;;;;;;12.65;5.50;;;11.20;99.90;;;;;;5038302;28;20387;-78
2022/01/02 02:52:38;;;;;;;14.20;5.43;;;11.20;99.90;;;;;;5026291;28;20160;-74
2022/01/02 02:55:04;;;;;;;13.80;6.20;;;11.20;99.90;;;;;;5024127;28;20452;-73
2022/01/02 02:57:32;;;;;;;12.43;4.95;;;11.20;99.90;;;;;;5040570;28;20120;-73
2022/01/02 02:59:57;;;;;;;12.63;6.20;;;11.20;99.90;;;;;;5044902;28;20063;-74
2022/01/02 03:02:23;;;;;;;13.13;6.30;;;11.20;99.90;;;;;;5045180;28;20033;-75
2022/01/02 03:04:49;;;;;;;16.43;6.33;;;11.20;99.90;;;;;;5024528;28;20065;-72
2022/01/02 03:07:14;;;;;;;14.07;5.17;;;11.20;99.90;;;;;;5040660;28;20037;-73
2022/01/02 03:09:46;;;;;;;17.27;6.27;;;11.20;99.90;;;;;;5023263;28;20128;-72
2022/01/02 03:12:12;;;;;;;18.60;5.82;;;11.20;99.90;;;;;;5028169;28;20095;-74
2022/01/02 03:14:38;;;;;;;14.40;6.57;;;11.10;99.90;;;;;;5023386;28;20037;-74
2022/01/02 03:17:04;;;;;;;11.73;5.20;;;11.10;99.90;;;;;;5027886;28;20045;-72
2022/01/02 03:19:31;;;;;;;14.90;6.10;;;11.10;99.90;;;;;;5046238;28;20517;-72
2022/01/02 03:21:57;;;;;;;13.90;5.65;;;11.10;99.90;;;;;;5045786;28;20321;-72
2022/01/02 03:24:22;;;;;;;14.02;5.78;;;11.10;99.90;;;;;;5043723;28;20037;-72
2022/01/02 03:26:48;;;;;;;13.07;5.50;;;11.10;99.90;;;;;;5026309;28;20049;-72
2022/01/02 03:29:14;;;;;;;16.50;6.60;;;11.10;99.90;;;;;;5018153;28;20037;-72
2022/01/02 03:31:39;;;;;;;11.37;6.10;;;11.10;99.90;;;;;;5035202;28;20029;-74
2022/01/02 03:34:05;;;;;;;12.17;5.47;;;11.10;99.90;;;;;;5024076;28;20157;-72
2022/01/02 03:36:31;;;;;;;14.88;6.78;;;11.10;99.90;;;;;;5043612;28;20041;-73
2022/01/02 03:38:56;;;;;;;12.17;5.73;;;11.10;99.90;;;;;;5040753;28;20044;-72
2022/01/02 03:41:22;;;;;;;12.73;5.90;;;11.10;99.90;;;;;;5040833;28;20032;-74
2022/01/02 03:43:48;;;;;;;15.00;5.60;;;11.10;99.90;;;;;;5041635;28;20049;-70
2022/01/02 03:46:13;;;;;;;12.07;7.07;;;11.10;99.90;;;;;;5074311;22;20047;-86
2022/01/02 03:48:41;;;;;;;10.07;5.40;;;11.10;99.90;;;;;;5013014;28;20040;-86
2022/01/02 03:51:09;;;;;;;19.45;6.35;;;11.10;99.90;;;;;;4997580;28;20098;-84
2022/01/02 03:53:35;;;;;;;10.68;6.00;;;11.10;99.90;;;;;;5005481;28;20034;-86
2022/01/02 03:56:00;;;;;;;15.07;6.03;;;11.10;99.90;;;;;;5004982;28;20385;-86
2022/01/02 03:58:26;;;;;;;14.03;5.23;;;11.10;99.90;;;;;;4984914;28;20765;-86
2022/01/02 04:00:52;;;;;;;20.90;6.80;;;11.20;99.90;;;;;;4988589;28;20053;-86
2022/01/02 04:03:17;;;;;;;12.53;5.40;;;11.10;99.90;;;;;;4984769;28;20042;-86
2022/01/02 04:05:44;;;;;;;15.60;6.70;;;11.10;99.90;;;;;;5005471;28;20042;-86
2022/01/02 04:08:10;;;;;;;;;;;11.10;99.90;;;;;;4985247;28;20072;-85
2022/01/02 04:10:36;;;;;;;17.90;5.30;;;11.10;99.90;;;;;;4985702;28;19921;-87
2022/01/02 04:13:01;;;;;;;10.55;5.45;;;11.10;99.90;;;;;;4984063;28;20044;-86
2022/01/02 04:15:27;;;;;;;13.13;5.70;;;11.10;99.90;;;;;;4991199;28;20089;-86
2022/01/02 04:17:53;;;;;;;13.60;5.47;;;11.10;99.90;;;;;;4985704;28;20300;-86
2022/01/02 04:20:18;;;;;;;15.33;5.60;;;11.10;99.90;;;;;;4993023;28;20528;-86
2022/01/02 04:22:47;;;;;;;14.80;6.20;;;11.10;99.90;;;;;;4990837;28;20049;-86
2022/01/02 04:25:13;;;;;;;13.98;5.47;;;11.20;99.90;;;;;;4990281;28;20038;-86
2022/01/02 04:27:39;;;;;;;16.63;5.65;;;11.30;99.90;;;;;;5001291;28;20044;-87
2022/01/02 04:30:08;;;;;;;13.15;4.93;;;11.20;99.90;;;;;;4995576;28;20077;-86
2022/01/02 04:32:34;;;;;;;13.35;5.43;;;11.20;99.90;;;;;;4979443;28;20123;-86
2022/01/02 04:34:59;;;;;;;23.97;6.30;;;11.20;99.90;;;;;;4980706;28;20452;-86
2022/01/02 04:37:25;;;;;;;13.07;4.93;;;11.20;99.90;;;;;;4978087;28;20115;-87
2022/01/02 04:39:51;;;;;;;16.30;5.15;;;11.40;99.90;;;;;;4976581;28;20707;-86
2022/01/02 04:42:17;;;;;;;15.27;6.30;;;11.30;99.90;;;;;;4979924;28;20523;-86
2022/01/02 04:44:42;;;;;;;17.00;6.47;;;11.30;99.90;;;;;;4999501;28;20974;-86
2022/01/02 04:47:10;;;;;;;20.52;5.30;;;11.30;99.90;;;;;;4980611;28;21338;-86
2022/01/02 04:49:36;;;;;;;16.92;4.93;;;11.30;99.90;;;;;;4980988;28;20034;-86
2022/01/02 04:52:02;;;;;;;14.50;6.20;;;11.30;99.90;;;;;;4998153;28;20064;-87
2022/01/02 04:54:30;;;;;;;16.48;5.82;;;11.30;99.90;;;;;;4983862;28;20309;-86
2022/01/02 04:56:56;;;;;;;15.70;5.15;;;11.40;99.90;;;;;;4988092;28;20041;-84
2022/01/02 04:59:22;;;;;;;10.90;4.37;;;11.40;99.90;;;;;;4983071;28;20053;-86
2022/01/02 05:01:48;;;;;;;14.70;4.43;;;11.40;99.90;;;;;;4992901;28;20044;-84
2022/01/02 05:04:16;;;;;;;16.05;5.10;;;11.40;99.90;;;;;;4993303;28;20101;-86
2022/01/02 05:06:48;;;;;;;9.13;4.13;;;11.40;99.90;;;;;;4974620;28;20684;-86
2022/01/02 05:09:14;;;;;;;14.88;4.60;;;11.40;99.90;;;;;;4984007;28;20257;-86
2022/01/02 05:11:39;;;;;;;21.27;4.73;;;11.40;99.90;;;;;;4980129;28;20511;-86
2022/01/02 05:14:05;;;;;;;10.37;4.07;;;11.40;99.90;;;;;;4984888;28;20307;-86
2022/01/02 05:16:33;;;;;;;19.73;4.57;;;11.40;99.90;;;;;;4991699;28;20097;-85
2022/01/02 05:18:59;;;;;;;16.70;4.50;;;11.40;99.90;;;;;;4998187;28;20045;-86
2022/01/02 05:21:25;;;;;;;11.95;5.25;;;11.40;99.90;;;;;;4979843;28;20037;-86
2022/01/02 05:23:50;;;;;;;12.40;5.03;;;11.40;99.90;;;;;;4978165;28;20046;-86
2022/01/02 05:26:19;;;;;;;8.53;3.37;;;11.40;99.90;;;;;;4980174;28;20128;-86
2022/01/02 05:28:45;;;;;;;11.60;3.53;;;11.50;99.90;;;;;;4996631;28;20439;-85
2022/01/02 05:31:11;;;;;;;10.20;3.90;;;11.50;99.90;;;;;;4992761;28;20114;-86
2022/01/02 05:33:36;;;;;;;11.50;3.87;;;11.50;99.90;;;;;;4976707;28;20038;-86
2022/01/02 05:36:05;;;;;;;11.67;3.73;;;11.50;99.90;;;;;;4982111;28;20476;-86
2022/01/02 05:38:32;;;;;;;12.00;4.03;;;11.50;99.90;;;;;;4976731;28;20167;-86
2022/01/02 05:40:58;;;;;;;16.15;4.15;;;11.60;99.90;;;;;;4977974;28;20034;-86
2022/01/02 05:43:24;;;;;;;7.97;3.30;;;11.60;99.90;;;;;;4979212;28;20037;-86
2022/01/02 05:45:50;;;;;;;13.70;4.30;;;11.60;99.90;;;;;;4992881;28;20037;-86
2022/01/02 05:48:15;;;;;;;13.60;3.40;;;11.60;99.90;;;;;;4979586;28;20300;-87
2022/01/02 05:50:41;;;;;;;12.70;3.83;;;11.60;99.90;;;;;;4999981;28;20077;-86
2022/01/02 05:53:07;;;;;;;9.93;3.30;;;11.50;99.90;;;;;;4981836;28;20304;-85
2022/01/02 05:55:35;;;;;;;16.03;3.60;;;11.60;99.90;;;;;;4980131;28;20022;-85
2022/01/02 05:58:04;;;;;;;10.55;3.25;;;11.60;99.90;;;;;;4980103;28;20087;-86
2022/01/02 06:00:30;;;;;;;15.43;3.75;;;11.50;99.90;;;;;;4977121;28;20045;-86
2022/01/02 06:02:56;;;;;;;11.85;3.40;;;11.60;99.90;;;;;;4977899;28;20128;-86
2022/01/02 06:05:24;;;;;;;9.27;3.07;;;11.60;99.90;;;;;;4982156;28;20038;-86
2022/01/02 06:07:50;;;;;;;10.13;3.60;;;11.60;99.90;;;;;;5005783;28;20312;-86
2022/01/02 06:10:16;;;;;;;10.93;3.30;;;11.60;99.90;;;;;;4988420;28;20053;-85
2022/01/02 06:12:42;;;;;;;15.45;3.70;;;11.60;99.90;;;;;;5003323;28;20209;-86
2022/01/02 06:15:07;;;;;;;11.70;3.87;;;11.60;99.90;;;;;;4990204;28;20523;-86
2022/01/02 06:17:36;;;;;;;11.00;3.17;;;11.60;99.90;;;;;;4985307;28;20101;-86
2022/01/02 06:20:02;;;;;;;12.38;3.30;;;11.60;99.90;;;;;;4981334;28;20297;-86
2022/01/02 06:22:27;;;;;;;12.98;3.20;;;11.60;99.90;;;;;;4979545;28;20100;-86
2022/01/02 06:24:53;;;;;;;9.48;3.83;;;11.60;99.90;;;;;;4985255;28;20125;-86
2022/01/02 06:27:20;;;;;;;14.70;3.40;;;11.60;99.90;;;;;;4982091;28;20053;-85
2022/01/02 06:29:49;;;;;;;13.20;3.03;;;11.60;99.90;;;;;;5001400;28;20038;-85
2022/01/02 06:32:14;;;;;;;15.07;3.55;;;11.60;99.90;;;;;;4987063;28;20553;-85
2022/01/02 06:34:44;;;;;;;15.50;3.47;;;11.60;99.90;;;;;;5003436;28;20153;-85
2022/01/02 06:37:10;;;;;;;14.52;3.92;;;11.60;99.90;;;;;;5006331;28;20045;-86
2022/01/02 06:39:35;;;;;;;16.00;3.23;;;11.70;99.90;;;;;;4989551;28;20598;-85
2022/01/02 06:42:01;;;;;;;9.93;3.67;;;11.70;99.90;;;;;;4989684;28;20361;-85
2022/01/02 06:44:27;;;;;;;7.87;3.07;;;11.70;99.90;;;;;;4991019;28;20038;-83
2022/01/02 06:46:52;;;;;;;12.03;3.13;;;11.70;99.90;;;;;;4990438;28;20128;-85
2022/01/02 06:49:18;;;;;;;14.03;3.80;;;11.70;99.90;;;;;;4986722;28;20050;-85
2022/01/02 06:51:44;;;;;;;15.93;3.70;;;11.80;99.90;;;;;;4994283;28;20049;-86
2022/01/02 06:54:09;;;;;;;8.63;3.33;;;11.60;99.90;;;;;;4999174;28;20033;-85
2022/01/02 06:56:35;;;;;;;10.23;3.40;;;11.70;99.90;;;;;;4984492;28;20322;-85
2022/01/02 06:59:08;;;;;;;9.20;2.92;;;11.70;99.90;;;;;;4993490;28;20044;-85
2022/01/02 07:01:34;;;;;;;5.05;2.67;;;11.70;99.90;;;;;;4989009;28;20033;-85
2022/01/02 07:04:00;;;;;;;6.50;2.58;;;11.70;99.90;;;;;;4981289;28;20281;-85
2022/01/02 07:06:27;;;;;;;13.87;3.33;;;11.70;99.90;;;;;;4986011;28;20037;-85
2022/01/02 07:08:55;;;;;;;9.65;2.97;;;11.70;99.90;;;;;;4996388;28;20300;-86
2022/01/02 07:11:21;;;;;;;12.27;2.83;;;11.80;99.90;;;;;;5016667;28;20045;-85
2022/01/02 07:13:47;;;;;;;11.87;2.43;;;11.80;99.90;;;;;;4992666;28;20091;-84
2022/01/02 07:16:13;;;;;;;8.85;2.97;;;11.90;99.90;;;;;;4990669;28;20073;-85
2022/01/02 07:18:38;;;;;;;8.68;2.83;;;11.90;99.90;;;;;;4992443;28;20046;-86
2022/01/02 07:21:04;;;;;;;13.17;2.80;;;11.80;99.90;;;;;;4986182;28;20053;-84
2022/01/02 07:23:36;;;;;;;9.00;3.13;;;11.80;99.90;;;;;;4993064;28;20069;-85
2022/01/02 07:26:02;;;;;;;7.30;2.47;;;11.80;99.90;;;;;;4993562;28;20037;-86
2022/01/02 07:28:29;;;;;;;9.52;2.50;;;11.80;99.90;;;;;;4994845;28;20080;-86
2022/01/02 07:30:55;;;;;;;13.55;3.00;;;11.90;99.90;;;;;;4990275;28;20046;-85
2022/01/02 07:33:23;;;;;;;6.87;2.40;;;11.90;99.90;;;;;;4990175;28;20041;-85
2022/01/02 07:35:49;;;;;;;11.60;2.67;;;11.90;99.90;;;;;;4982164;28;20296;-86
2022/01/02 07:38:15;;;;;;;7.53;2.30;;;11.90;99.90;;;;;;4981086;28;20037;-85
2022/01/02 07:40:40;;;;;;;9.40;2.17;;;11.90;99.90;;;;;;5003089;28;20057;-85
2022/01/02 07:43:06;;;;;;;6.97;2.30;;;11.90;99.90;;;;;;5000303;28;20475;-85
2022/01/02 07:45:35;;;;;;;6.23;2.40;;;11.90;99.90;;;;;;4983891;28;20294;-86
2022/01/02 07:48:00;;;;;;;9.85;2.42;;;12.00;99.90;;;;;;4997465;28;20483;-85
2022/01/02 07:50:26;;;;;;;6.07;2.60;;;11.90;99.90;;;;;;4986832;28;20072;-85
2022/01/02 07:52:52;;;;;;;10.48;3.13;;;11.90;99.90;;;;;;4984321;28;20416;-85
2022/01/02 07:55:20;;;;;;;12.63;3.17;;;11.90;99.90;;;;;;5000064;28;20038;-85
2022/01/02 07:57:49;;;;;;;12.23;3.05;;;11.90;99.90;;;;;;4983445;28;20845;-85
2022/01/02 08:00:18;;;;;;;11.38;2.50;;;11.80;99.90;;;;;;4988382;28;20065;-86
2022/01/02 08:02:44;;;;;;;9.55;3.08;;;11.80;99.90;;;;;;4986984;28;20068;-83
2022/01/02 08:05:10;;;;;;;9.53;3.17;;;11.80;99.90;;;;;;5005506;28;20026;-84
2022/01/02 08:07:40;;;;;;;10.95;3.47;;;11.80;99.90;;;;;;4986234;28;20297;-85
2022/01/02 08:10:06;;;;;;;6.70;3.58;;;11.70;99.90;;;;;;4980502;28;20498;-86
2022/01/02 08:12:32;;;;;;;10.52;2.63;;;11.70;99.90;;;;;;4984399;28;20041;-84
2022/01/02 08:14:57;;;;;;;8.52;4.05;;;11.70;99.90;;;;;;5000640;23;20149;-68
2022/01/02 08:17:23;;;;;;;9.83;2.87;;;11.70;99.90;;;;;;5003417;28;20447;-68
2022/01/02 08:19:48;;;;;;;5.93;2.80;;;11.70;99.90;;;;;;5011932;28;20042;-68
2022/01/02 08:22:14;;;;;;;10.93;3.30;;;11.70;99.90;;;;;;5012556;28;20041;-68
2022/01/02 08:24:42;;;;;;;8.00;3.43;;;11.70;99.90;;;;;;4983290;28;20612;-68
2022/01/02 08:27:07;;;;;;;7.25;3.50;;;11.70;99.90;;;;;;5006294;28;20034;-68
2022/01/02 08:29:33;;;;;;;9.87;3.67;;;11.60;99.90;;;;;;5005562;28;20126;-68
2022/01/02 08:31:59;;;;;;;9.50;3.33;;;11.60;99.90;;;;;;5007390;28;20486;-67
2022/01/02 08:34:24;;;;;;;9.17;3.57;;;11.60;99.90;;;;;;5006453;28;20030;-68
2022/01/02 08:36:50;;;;;;;10.83;4.00;;;11.60;99.90;;;;;;5000889;28;20177;-68
2022/01/02 08:39:15;;;;;;;6.83;3.50;;;11.60;99.90;;;;;;5007660;28;20042;-68
2022/01/02 08:41:41;;;;;;;9.17;3.17;;;11.60;99.90;;;;;;4990300;28;20038;-68
2022/01/02 08:44:06;;;;;;;10.03;3.70;;;11.60;99.90;;;;;;5004500;28;20483;-68
2022/01/02 08:46:32;;;;;;;7.27;3.10;;;11.50;99.90;;;;;;5008055;28;20661;-68
2022/01/02 08:48:58;;;;;;;9.40;3.37;;;11.50;99.90;;;;;;5005338;28;20487;-68
2022/01/02 08:51:23;;;;;;;8.87;4.07;;;11.50;99.90;;;;;;4987208;28;20095;-68
2022/01/02 08:53:49;;;;;;;12.40;3.27;;;11.50;99.90;;;;;;4994483;28;20038;-68
2022/01/02 08:56:14;;;;;;;8.00;3.63;;;11.40;99.90;;;;;;5008960;28;20049;-68
2022/01/02 08:58:40;;;;;;;10.83;3.87;;;11.40;99.90;;;;;;5002208;28;20402;-69
2022/01/02 09:01:06;;;;;;;12.50;3.55;;;11.40;99.90;;;;;;4976942;28;20037;-68
2022/01/02 09:03:33;;;;;;;10.30;4.10;;;11.30;99.90;;;;;;4992280;28;20056;-68
2022/01/02 09:05:58;;;;;;;7.13;3.50;;;11.30;99.90;;;;;;5003416;28;20041;-68
2022/01/02 09:08:24;;;;;;;12.53;3.87;;;11.30;99.90;;;;;;5011787;28;20521;-68
2022/01/02 09:10:49;;;;;;;15.90;4.53;;;11.30;99.90;;;;;;5002010;28;20037;-68
2022/01/02 09:13:15;;;;;;;10.50;3.70;;;11.30;99.90;;;;;;4984585;28;20489;-68
2022/01/02 09:15:41;;;;;;;9.33;3.17;;;11.20;99.90;;;;;;5000697;28;20456;-68
2022/01/02 09:18:06;;;;;;;10.20;4.10;;;11.20;99.90;;;;;;5004013;28;20034;-68
2022/01/02 09:20:33;;;;;;;7.87;3.43;;;11.20;99.90;;;;;;5003847;28;20411;-68
2022/01/02 09:23:07;;;;;;;8.32;3.60;;;11.20;99.90;;;;;;5004427;28;20148;-68
2022/01/02 09:25:33;;;;;;;10.15;3.65;;;11.20;99.90;;;;;;4998930;28;20037;-68
2022/01/02 09:27:58;;;;;;;9.27;3.57;;;11.20;99.90;;;;;;4996512;28;20510;-68
2022/01/02 09:30:24;;;;;;;9.17;3.73;;;11.30;99.90;;;;;;5004938;28;20090;-68
2022/01/02 09:32:50;;;;;;;5.73;3.07;;;11.20;99.90;;;;;;4991818;28;20402;-69
2022/01/02 09:35:15;;;;;;;5.73;3.40;;;11.30;99.90;;;;;;5009013;28;20110;-68
2022/01/02 09:37:41;;;;;;;10.07;4.13;;;11.20;99.90;;;;;;5001983;28;20391;-68
2022/01/02 09:40:08;;;;;;;7.80;3.77;;;11.20;99.90;;;;;;5006216;28;20406;-68
2022/01/02 09:42:38;;;;;;;10.52;4.00;;;11.20;99.90;;;;;;5001928;28;20176;-68
2022/01/02 09:45:05;;;;;;;9.63;3.90;;;11.20;99.90;;;;;;4997592;23;20360;-68
2022/01/02 09:47:32;;;;;;;13.93;3.88;;;11.20;99.90;;;;;;4986663;28;20053;-68
2022/01/02 09:49:59;;;;;;;;;;;11.20;99.90;;;;;;4965944;28;20038;-67
2022/01/02 09:52:24;;;;;;;9.00;3.70;;;11.20;99.90;;;;;;4988438;28;20427;-68
2022/01/02 09:54:50;;;;;;;12.43;3.90;;;11.10;99.90;;;;;;5003685;28;20042;-68
2022/01/02 09:57:16;;;;;;;8.63;3.33;;;11.10;99.90;;;;;;5001640;28;20151;-68
2022/01/02 09:59:42;;;;;;;;;;;11.10;99.90;;;;;;4981187;28;20244;-68
2022/01/02 10:02:08;;;;;;;12.20;4.68;;;11.10;99.90;;;;;;5004053;28;20403;-68
2022/01/02 10:04:38;;;;;;;7.20;3.70;;;11.10;99.90;;;;;;4997815;28;20087;-68
2022/01/02 10:07:13;;;;;;;8.40;4.63;;;11.10;99.90;;;;;;4983745;28;20046;-68
2022/01/02 10:09:39;;;;;;;10.10;5.20;;;11.10;99.90;;;;;;4985842;28;20085;-68
2022/01/02 10:12:27;;;;;;;14.27;4.27;;;11.10;99.90;;;;;;4989602;28;20040;-68
2022/01/02 10:15:12;;;;;;;10.88;4.75;;;11.10;99.90;;;;;;5003815;28;20049;-68
2022/01/02 10:17:59;;;;;;;14.30;4.72;;;11.20;99.90;;;;;;4971329;28;20386;-68
2022/01/02 10:20:37;;;;;;;11.23;4.40;;;11.20;99.90;;;;;;4978052;28;20485;-68
2022/01/02 10:23:09;;;;;;;13.50;4.82;;;11.20;99.90;;;;;;4998307;28;20447;-67
2022/01/02 10:25:41;;;;;;;10.63;4.15;;;11.30;99.90;;;;;;5004152;28;20084;-68
2022/01/02 10:28:31;;;;;;;13.48;3.95;;;11.30;99.90;;;;;;4978861;28;20045;-68
2022/01/02 10:31:00;;;;;;;7.95;3.60;;;11.30;99.90;;;;;;5004233;28;20133;-68
2022/01/02 10:33:28;;;;;;;17.50;4.75;;;11.30;99.90;;;;;;4983937;28;20195;-68
2022/01/02 10:35:58;;;;;;;8.48;4.03;;;11.30;99.90;;;;;;4985389;28;20042;-68
2022/01/02 10:38:24;;;;;;;13.07;4.28;;;11.30;99.90;;;;;;4998300;28;20437;-68
2022/01/02 10:40:49;;;;;;;23.43;4.37;;;11.30;99.90;;;;;;4981993;28;20046;-67
2022/01/02 10:43:24;;;;;;;10.47;4.30;;;11.30;99.90;;;;;;4997939;28;20034;-68
2022/01/02 10:45:50;;;;;;;14.68;4.45;;;11.30;99.90;;;;;;4987291;28;20829;-68
2022/01/02 10:48:38;;;;;;;13.00;4.13;;;11.30;99.90;;;;;;4982516;28;20478;-67
2022/01/02 10:51:16;;;;;;;16.73;4.18;;;11.30;99.90;;;;;;5006343;28;20073;-68
2022/01/02 10:53:56;;;;;;;16.38;4.10;;;11.30;99.90;;;;;;4996623;28;20034;-67
2022/01/02 10:56:23;;;;;;;15.25;4.15;;;11.30;99.90;;;;;;5005572;28;20042;-67
2022/01/02 10:58:49;;;;;;;16.10;3.50;;;11.30;99.90;;;;;;4979822;28;20038;-67
2022/01/02 11:01:16;;;;;;;11.77;3.95;;;11.40;99.90;;;;;;4998221;28;20092;-68
2022/01/02 11:03:46;;;;;;;15.15;4.25;;;11.40;99.90;;;;;;4984292;28;20479;-67
2022/01/02 11:06:14;;;;;;;13.20;4.50;;;11.40;99.90;;;;;;4988258;28;20050;-68
2022/01/02 11:08:47;;;;;;;15.68;3.53;;;11.30;99.90;;;;;;4988333;28;20042;-67
2022/01/02 11:11:12;;;;;;;14.57;3.95;;;11.30;99.90;;;;;;4986401;28;20038;-67
2022/01/02 11:13:39;;;;;;;11.85;3.75;;;11.40;99.90;;;;;;4982156;28;20053;-68
2022/01/02 11:16:05;;;;;;;12.75;3.47;;;11.40;99.90;;;;;;5001570;28;20044;-67
2022/01/02 11:18:32;;;;;;;10.77;3.92;;;11.40;99.90;;;;;;5002634;28;20069;-68
2022/01/02 11:20:59;;;;;;;19.55;4.40;;;11.40;99.90;;;;;;4988663;28;20045;-70
2022/01/02 11:23:48;;;;;;;;;;;11.30;99.90;;;;;;5001505;28;20044;-69
2022/01/02 11:26:23;;;;;;;13.75;4.28;;;11.30;99.90;;;;;;5002628;28;20182;-68
2022/01/02 11:28:49;;;;;;;9.98;3.88;;;11.30;99.90;;;;;;4998402;28;20058;-68
2022/01/02 11:31:33;;;;;;;20.50;3.92;;;11.30;99.90;;;;;;5003265;28;20487;-69
2022/01/02 11:34:23;;;;;;;15.00;3.75;;;11.30;99.90;;;;;;4982744;28;20045;-70
2022/01/02 11:36:49;;;;;;;14.98;4.45;;;11.30;99.90;;;;;;4984846;28;20399;-69
2022/01/02 11:39:15;;;;;;;18.95;4.18;;;11.30;99.90;;;;;;4995240;28;20040;-68
2022/01/02 11:41:46;;;;;;;16.13;3.37;;;11.30;99.90;;;;;;5004176;28;20037;-67
2022/01/02 11:44:14;;;;;;;10.13;3.22;;;11.40;99.90;;;;;;4988104;28;20045;-69
2022/01/02 11:46:48;;;;;;;14.95;3.63;;;11.40;99.90;;;;;;4991036;28;20338;-69
2022/01/02 11:49:18;;;;;;;7.70;2.60;;;11.40;99.90;;;;;;4985735;28;20480;-67
2022/01/02 11:51:47;;;;;;;12.70;3.35;;;11.40;99.90;;;;;;5004190;28;20668;-68
2022/01/02 11:54:40;;;;;;;19.08;3.42;;;11.40;99.90;;;;;;4981317;28;20446;-67
2022/01/02 11:57:12;;;;;;;19.35;3.10;;;11.40;99.90;;;;;;4998265;28;20049;-67
2022/01/02 11:59:42;;;;;;;11.05;3.20;;;11.40;99.90;;;;;;4994901;28;20045;-67
2022/01/02 12:02:11;;;;;;;12.85;2.88;;;11.40;99.90;;;;;;4994507;28;20053;-68
2022/01/02 12:05:14;;;;;;;20.88;3.83;;;11.50;99.90;;;;;;4969378;28;20128;-67
2022/01/02 12:07:50;;;;;;;6.97;3.00;;;11.50;99.90;;;;;;4996960;28;20042;-68
2022/01/02 12:10:23;;;;;;;11.52;3.28;;;11.50;99.90;;;;;;4994961;28;20521;-67
2022/01/02 12:13:12;;;;;;;11.77;2.85;;;11.50;99.90;;;;;;4988198;28;20057;-67
2022/01/02 12:15:38;;;;;;;17.35;3.80;;;11.50;99.90;;;;;;4984302;28;20052;-67
2022/01/02 12:18:15;;;;;;;18.30;2.63;;;11.50;99.90;;;;;;5000293;28;20045;-67
2022/01/02 12:20:49;;;;;;;12.48;2.50;;;11.50;99.90;;;;;;5004767;28;20446;-71
2022/01/02 12:23:33;;;;;;;18.15;3.20;;;11.50;99.90;;;;;;4979984;28;20050;-69
2022/01/02 12:26:13;;;;;;;13.07;2.92;;;11.50;99.90;;;;;;5007018;28;20422;-70
2022/01/02 12:28:56;;;;;;;13.90;2.67;;;11.50;99.90;;;;;;4982334;28;20052;-71
2022/01/02 12:31:28;;;;;;;14.40;3.05;;;11.50;99.90;;;;;;4985023;28;20038;-68
2022/01/02 12:33:54;;;;;;;8.88;2.28;;;11.60;99.90;;;;;;4986564;28;20535;-69
2022/01/02 12:36:22;;;;;;;10.25;2.95;;;11.60;99.90;;;;;;4997815;28;20494;-68
2022/01/02 12:38:49;;;;;;;14.10;2.78;;;11.50;99.90;;;;;;4998995;28;20096;-68
2022/01/02 12:41:17;;;;;;;11.30;2.47;;;11.50;99.90;;;;;;5000448;28;20168;-68
2022/01/02 12:44:07;;;;;;;11.07;2.42;;;11.50;99.90;;;;;;4989114;28;20115;-68
2022/01/02 12:46:38;;;;;;;16.80;3.30;;;11.50;99.90;;;;;;4981407;28;20463;-67
2022/01/02 12:49:07;;;;;;;13.10;2.47;;;11.50;99.90;;;;;;5002584;28;20196;-70
2022/01/02 12:51:37;;;;;;;10.35;2.15;;;11.50;99.90;;;;;;4990902;28;20438;-67
2022/01/02 12:54:09;;;;;;;16.48;2.85;;;11.40;99.90;;;;;;4991669;28;20038;-81